createdAt,value
2022-12-19T00:01:55.675Z,96591.42
2022-12-19T00:04:21.952Z,96600.47
2022-12-19T00:06:48.340Z,96601.61
2022-12-19T00:09:14.692Z,96606.41
2022-12-19T00:11:41.080Z,96614.88
2022-12-19T00:14:07.472Z,96616.55
2022-12-19T00:16:33.868Z,96610.84
2022-12-19T00:19:00.217Z,96614.76
2022-12-19T00:21:26.572Z,96613.46
2022-12-19T00:23:52.962Z,96611.86
2022-12-19T00:26:19.313Z,96623.55
2022-12-19T00:28:45.701Z,96626.19
2022-12-19T00:31:12.077Z,96628.95
2022-12-19T00:33:42.587Z,96624.38
2022-12-19T00:36:04.802Z,96626.67
2022-12-19T00:38:31.199Z,96619.94
2022-12-19T00:40:57.549Z,96624.83
2022-12-19T00:43:23.946Z,96629.63
2022-12-19T00:45:50.349Z,96636.20
2022-12-19T00:48:16.693Z,96633.55
2022-12-19T00:50:43.049Z,96634.00
2022-12-19T00:53:09.437Z,96631.72
2022-12-19T00:55:35.821Z,96629.23
2022-12-19T00:58:02.215Z,96632.55
2022-12-19T01:00:28.570Z,96632.01
2022-12-19T01:02:55.074Z,96632.94
2022-12-19T01:05:21.305Z,96641.02
2022-12-19T01:07:47.697Z,96632.94
2022-12-19T01:10:14.043Z,96635.58
2022-12-19T01:12:40.443Z,96638.99
2022-12-19T01:15:06.792Z,96643.25
2022-12-19T01:17:33.182Z,96644.53
2022-12-19T01:19:59.528Z,96644.89
2022-12-19T01:22:25.919Z,96647.17
2022-12-19T01:24:52.267Z,96648.07
2022-12-19T01:27:18.655Z,96653.45
2022-12-19T01:29:52.441Z,96643.70
2022-12-19T01:32:11.413Z,96644.98
2022-12-19T01:34:37.761Z,96648.75
2022-12-19T01:37:04.178Z,96648.59
2022-12-19T01:39:30.524Z,96650.88
2022-12-19T01:41:56.924Z,96650.88
2022-12-19T01:44:23.269Z,96647.91
2022-12-19T01:46:49.664Z,96646.72
2022-12-19T01:49:16.005Z,96648.24
2022-12-19T01:51:42.430Z,96645.95
2022-12-19T01:54:08.774Z,96645.05
2022-12-19T01:56:35.145Z,96645.13
2022-12-19T01:59:05.697Z,96646.41
2022-12-19T02:01:28.098Z,96637.55
2022-12-19T02:03:54.268Z,96637.00
2022-12-19T02:06:20.696Z,96639.97
2022-12-19T02:08:47.050Z,96635.55
2022-12-19T02:11:13.435Z,96627.18
2022-12-19T02:13:39.822Z,96638.29
2022-12-19T02:16:06.265Z,96637.39
2022-12-19T02:18:32.567Z,96638.13
2022-12-19T02:20:58.970Z,96639.22
2022-12-19T02:23:25.321Z,96636.71
2022-12-19T02:25:51.947Z,96630.56
2022-12-19T02:28:18.087Z,96632.63
2022-12-19T02:30:44.482Z,96637.69
2022-12-19T02:33:10.829Z,96643.61
2022-12-19T02:35:37.232Z,96643.67
2022-12-19T02:38:03.661Z,96647.98
2022-12-19T02:40:30.028Z,96646.70
2022-12-19T02:42:56.382Z,96648.83
2022-12-19T02:45:28.750Z,96648.92
2022-12-19T02:47:49.129Z,96649.44
2022-12-19T02:50:15.521Z,96651.79
2022-12-19T02:52:41.881Z,96643.38
2022-12-19T02:55:08.299Z,96648.08
2022-12-19T02:57:34.648Z,96646.41
2022-12-19T03:00:01.055Z,96648.08
2022-12-19T03:02:27.652Z,96648.83
2022-12-19T03:04:53.816Z,96644.06
2022-12-19T03:07:20.166Z,96640.64
2022-12-19T03:09:46.554Z,96640.41
2022-12-19T03:12:17.312Z,96637.48
2022-12-19T03:14:39.306Z,96629.27
2022-12-19T03:17:05.804Z,96628.82
2022-12-19T03:19:33.495Z,96629.53
2022-12-19T03:21:58.650Z,96627.79
2022-12-19T03:24:25.047Z,96627.02
2022-12-19T03:26:51.389Z,96630.52
2022-12-19T03:29:17.787Z,96632.01
2022-12-19T03:31:44.180Z,96634.30
2022-12-19T03:34:10.550Z,96636.64
2022-12-19T03:36:36.900Z,96640.83
2022-12-19T03:39:03.315Z,96646.17
2022-12-19T03:41:29.666Z,96647.47
2022-12-19T03:43:56.051Z,96647.11
2022-12-19T03:46:22.434Z,96650.05
2022-12-19T03:48:48.814Z,96647.85
2022-12-19T03:51:15.174Z,96648.69
2022-12-19T03:53:41.577Z,96643.54
2022-12-19T03:56:07.920Z,96644.44
2022-12-19T03:58:34.333Z,96660.28
2022-12-19T04:01:00.760Z,96660.13
2022-12-19T04:03:27.124Z,96664.98
2022-12-19T04:05:53.440Z,96666.79
2022-12-19T04:08:19.864Z,96669.37
2022-12-19T04:10:46.209Z,96665.14
2022-12-19T04:13:12.616Z,96674.52
2022-12-19T04:15:39.024Z,96678.23
2022-12-19T04:18:05.389Z,96685.66
2022-12-19T04:20:31.737Z,96695.13
2022-12-19T04:22:58.155Z,96693.84
2022-12-19T04:25:29.180Z,96702.50
2022-12-19T04:27:50.978Z,96699.44
2022-12-19T04:30:17.278Z,96699.38
2022-12-19T04:32:43.747Z,96704.69
2022-12-19T04:35:10.084Z,96701.12
2022-12-19T04:37:36.471Z,96701.66
2022-12-19T04:40:02.837Z,96697.34
2022-12-19T04:42:29.221Z,96689.23
2022-12-19T04:44:55.570Z,96690.06
2022-12-19T04:47:21.967Z,96690.58
2022-12-19T04:49:48.363Z,96692.26
2022-12-19T04:52:14.831Z,96697.86
2022-12-19T04:54:41.183Z,96697.02
2022-12-19T04:57:07.578Z,96703.46
2022-12-19T04:59:33.932Z,96701.37
2022-12-19T05:02:00.474Z,96699.44
2022-12-19T05:04:26.661Z,96679.91
2022-12-19T05:06:53.065Z,96714.30
2022-12-19T05:09:19.408Z,96715.52
2022-12-19T05:11:45.791Z,96717.95
2022-12-19T05:14:12.131Z,96719.02
2022-12-19T05:16:38.529Z,96714.16
2022-12-19T05:19:04.867Z,96710.04
2022-12-19T05:21:31.255Z,96710.27
2022-12-19T05:23:57.627Z,96705.73
2022-12-19T05:26:24.013Z,96706.38
2022-12-19T05:28:50.356Z,96708.00
2022-12-19T05:31:16.781Z,96710.09
2022-12-19T05:33:43.096Z,96709.71
2022-12-19T05:36:09.505Z,96713.41
2022-12-19T05:38:35.848Z,96716.25
2022-12-19T05:41:02.242Z,96721.34
2022-12-19T05:43:28.587Z,96718.13
2022-12-19T05:45:54.977Z,96717.73
2022-12-19T05:48:21.325Z,96717.52
2022-12-19T05:50:47.716Z,96720.03
2022-12-19T05:53:14.081Z,96718.28
2022-12-19T05:55:40.500Z,96719.03
2022-12-19T05:58:06.813Z,96717.67
2022-12-19T06:00:33.289Z,96721.83
2022-12-19T06:02:59.786Z,96722.22
2022-12-19T06:05:26.039Z,96728.95
2022-12-19T06:07:52.415Z,96726.67
2022-12-19T06:10:18.785Z,96728.50
2022-12-19T06:12:45.139Z,96730.08
2022-12-19T06:15:11.554Z,96729.92
2022-12-19T06:17:37.899Z,96728.70
2022-12-19T06:20:04.308Z,96731.66
2022-12-19T06:22:30.652Z,96741.08
2022-12-19T06:24:57.069Z,96740.08
2022-12-19T06:27:23.429Z,96739.53
2022-12-19T06:29:49.801Z,96740.75
2022-12-19T06:32:16.149Z,96745.20
2022-12-19T06:37:08.901Z,96750.03
2022-12-19T06:39:35.304Z,96747.77
2022-12-19T06:42:01.660Z,96750.87
2022-12-19T06:44:28.058Z,96752.09
2022-12-19T06:46:54.406Z,96760.05
2022-12-19T06:49:20.800Z,96757.92
2022-12-19T06:51:47.144Z,96761.63
2022-12-19T06:54:13.568Z,96762.30
2022-12-19T06:56:39.912Z,96760.17
2022-12-19T06:59:06.306Z,96764.95
2022-12-19T07:01:32.759Z,96770.79
2022-12-19T07:03:59.066Z,96776.46
2022-12-19T07:06:25.411Z,96780.33
2022-12-19T07:08:51.846Z,96784.20
2022-12-19T07:11:18.163Z,96787.17
2022-12-19T07:13:44.587Z,96791.11
2022-12-19T07:16:10.995Z,96787.91
2022-12-19T07:18:37.308Z,96790.29
2022-12-19T07:21:03.677Z,96795.06
2022-12-19T07:23:30.137Z,96796.81
2022-12-19T07:25:56.447Z,96793.38
2022-12-19T07:28:22.855Z,96794.06
2022-12-19T07:30:49.221Z,96796.03
2022-12-19T07:33:21.061Z,96799.06
2022-12-19T07:35:41.996Z,96799.83
2022-12-19T07:38:08.392Z,96786.03
2022-12-19T07:40:34.720Z,96786.03
2022-12-19T07:43:01.141Z,96800.98
2022-12-19T07:45:27.513Z,96803.04
2022-12-19T07:47:53.914Z,96810.28
2022-12-19T07:50:20.288Z,96817.91
2022-12-19T07:52:46.767Z,96820.40
2022-12-19T07:55:13.109Z,96824.03
2022-12-19T07:57:39.525Z,96827.74
2022-12-19T08:00:05.879Z,96827.64
2022-12-19T08:02:32.353Z,96836.11
2022-12-19T08:04:58.649Z,96840.37
2022-12-19T08:07:25.057Z,96846.37
2022-12-19T08:09:51.403Z,96852.52
2022-12-19T08:12:17.811Z,96848.78
2022-12-19T08:14:44.164Z,96849.77
2022-12-19T08:17:20.424Z,96849.58
2022-12-19T08:19:36.980Z,96853.61
2022-12-19T08:22:03.356Z,96856.48
2022-12-19T08:24:29.716Z,96849.24
2022-12-19T08:26:56.117Z,96858.68
2022-12-19T08:29:22.472Z,96856.99
2022-12-19T08:31:48.892Z,96857.20
2022-12-19T08:34:15.258Z,96857.20
2022-12-19T08:36:41.650Z,96868.61
2022-12-19T08:39:08.035Z,96863.52
2022-12-19T08:41:34.446Z,96860.08
2022-12-19T08:44:00.803Z,96856.61
2022-12-19T08:46:27.250Z,96859.64
2022-12-19T08:48:53.573Z,96856.53
2022-12-19T08:51:19.976Z,96855.27
2022-12-19T08:53:46.354Z,96853.91
2022-12-19T08:56:12.737Z,96844.48
2022-12-19T08:58:39.092Z,96842.69
2022-12-19T09:01:06.016Z,96833.29
2022-12-19T09:03:42.697Z,96838.07
2022-12-19T09:06:07.928Z,96830.08
2022-12-19T09:08:24.693Z,96829.63
2022-12-19T09:10:51.050Z,96831.39
2022-12-19T09:13:17.408Z,96830.11
2022-12-19T09:15:43.791Z,96825.09
2022-12-19T09:18:10.144Z,96827.19
2022-12-19T09:20:36.563Z,96814.75
2022-12-19T09:23:02.902Z,96820.27
2022-12-19T09:25:29.288Z,96813.19
2022-12-19T09:30:25.053Z,96810.20
2022-12-19T09:32:51.404Z,96800.78
2022-12-19T09:35:17.788Z,96797.36
2022-12-19T09:37:44.155Z,96791.28
2022-12-19T09:40:10.591Z,96784.55
2022-12-19T09:42:40.548Z,96779.91
2022-12-19T09:45:03.396Z,96782.70
2022-12-19T09:47:29.756Z,96762.42
2022-12-19T09:49:56.169Z,96766.57
2022-12-19T09:52:22.670Z,96772.58
2022-12-19T09:54:49.085Z,96768.87
2022-12-19T09:57:15.423Z,96770.69
2022-12-19T09:59:47.907Z,96762.70
2022-12-19T10:02:08.410Z,96752.25
2022-12-19T10:04:34.691Z,96763.25
2022-12-19T10:07:18.500Z,96754.39
2022-12-19T10:11:02.397Z,96755.36
2022-12-19T10:12:39.023Z,96754.28
2022-12-19T10:14:20.139Z,96752.44
2022-12-19T10:17:08.538Z,96745.66
2022-12-19T10:19:12.901Z,96716.81
2022-12-19T10:24:05.662Z,96734.52
2022-12-19T10:26:32.006Z,96732.08
2022-12-19T10:28:58.445Z,96732.08
2022-12-19T10:31:24.810Z,96728.59
2022-12-19T10:33:51.155Z,96714.10
2022-12-19T10:36:17.505Z,96714.10
2022-12-19T10:38:51.368Z,96711.52
2022-12-19T10:41:12.735Z,96701.36
2022-12-19T10:43:44.038Z,96701.36
2022-12-19T10:46:05.589Z,96701.44
2022-12-19T10:48:31.899Z,96701.81
2022-12-19T10:50:58.299Z,96697.48
2022-12-19T10:53:24.664Z,96697.94
2022-12-19T10:55:51.039Z,96689.36
2022-12-19T10:58:17.370Z,96689.36
2022-12-19T11:00:43.760Z,96691.24
2022-12-19T11:03:10.306Z,96692.78
2022-12-19T11:05:36.709Z,96687.23
2022-12-19T11:08:02.992Z,96686.70
2022-12-19T11:10:56.226Z,96689.84
2022-12-19T11:18:17.818Z,96688.27
2022-12-19T11:21:05.515Z,96690.41
2022-12-19T11:27:16.208Z,96685.59
2022-12-19T11:29:16.836Z,96662.98
2022-12-19T11:29:32.462Z,96682.55
2022-12-19T11:30:48.366Z,96682.55
2022-12-19T11:30:49.024Z,96677.67
2022-12-19T11:32:44.988Z,96678.12
2022-12-19T11:34:53.563Z,96679.41
2022-12-19T11:37:19.913Z,96679.41
2022-12-19T11:39:46.317Z,96685.03
2022-12-19T11:42:12.999Z,96684.13
2022-12-19T11:44:39.456Z,96681.16
2022-12-19T11:47:05.786Z,96678.36
2022-12-19T11:49:32.450Z,96678.36
2022-12-19T11:51:58.758Z,96681.09
2022-12-19T11:54:25.168Z,96681.09
2022-12-19T11:56:51.519Z,96683.95
2022-12-19T11:59:17.958Z,96678.58
2022-12-19T12:01:44.386Z,96676.91
2022-12-19T12:04:10.805Z,96671.56
2022-12-19T12:06:37.932Z,96671.56
2022-12-19T12:11:09.567Z,96678.02
2022-12-19T12:16:13.578Z,96680.59
2022-12-19T12:27:59.892Z,96673.86
2022-12-19T12:29:45.771Z,96675.08
2022-12-19T12:31:08.219Z,96682.83
2022-12-19T12:31:28.856Z,96675.08
2022-12-19T12:31:55.167Z,96681.09
2022-12-19T12:31:56.859Z,96678.02
2022-12-19T12:31:57.583Z,96681.09
2022-12-19T12:35:46.567Z,96679.97
2022-12-19T12:35:56.306Z,96678.02
2022-12-19T12:38:26.344Z,96688.00
2022-12-19T12:40:46.649Z,96694.00
2022-12-19T12:43:13.100Z,96694.00
2022-12-19T12:45:39.503Z,96697.03
2022-12-19T12:48:05.836Z,96694.52
2022-12-19T12:50:32.185Z,96694.52
2022-12-19T12:52:58.591Z,96682.06
2022-12-19T12:55:25.007Z,96692.32
2022-12-19T12:57:51.403Z,96696.66
2022-12-19T13:00:17.767Z,96699.34
2022-12-19T13:02:44.235Z,96683.28
2022-12-19T13:05:10.509Z,96680.77
2022-12-19T13:07:36.991Z,96689.01
2022-12-19T13:10:03.331Z,96683.08
2022-12-19T13:12:29.750Z,96682.62
2022-12-19T13:14:56.110Z,96696.66
2022-12-19T13:17:22.560Z,96697.03
2022-12-19T13:19:48.901Z,96700.91
2022-12-19T13:22:15.331Z,96687.33
2022-12-19T13:24:41.692Z,96689.70
2022-12-19T13:27:08.120Z,96699.69
2022-12-19T13:29:34.493Z,96701.98
2022-12-19T13:32:00.938Z,96699.86
2022-12-19T13:34:27.249Z,96705.69
2022-12-19T13:39:50.749Z,96714.83
2022-12-19T13:40:00.638Z,96703.73
2022-12-19T13:41:46.434Z,96708.52
2022-12-19T13:44:12.781Z,96708.52
2022-12-19T13:46:39.700Z,96724.67
2022-12-19T13:49:06.011Z,96726.91
2022-12-19T13:51:32.411Z,96718.50
2022-12-19T13:54:00.117Z,96717.66
2022-12-19T13:56:25.246Z,96718.56
2022-12-19T13:58:51.590Z,96719.12
2022-12-19T14:01:21.233Z,96719.12
2022-12-19T14:03:44.486Z,96721.91
2022-12-19T14:06:16.719Z,96725.69
2022-12-19T14:08:37.213Z,96710.15
2022-12-19T14:11:39.297Z,96719.33
2022-12-19T14:13:53.368Z,96719.69
2022-12-19T14:15:56.431Z,96719.69
2022-12-19T14:18:43.372Z,96729.48
2022-12-19T14:22:04.004Z,96708.85
2022-12-19T14:23:15.597Z,96726.70
2022-12-19T14:28:14.449Z,96727.81
2022-12-19T14:28:20.206Z,96730.64
2022-12-19T14:30:34.739Z,96732.41
2022-12-19T14:33:45.774Z,96732.41
2022-12-19T14:36:10.320Z,96733.36
2022-12-19T14:39:20.085Z,96734.38
2022-12-19T14:40:20.151Z,96738.59
2022-12-19T14:43:57.519Z,96720.48
2022-12-19T14:54:01.704Z,96720.48
2022-12-19T14:54:17.516Z,96735.22
2022-12-19T14:54:33.975Z,96728.97
2022-12-19T14:54:40.348Z,96726.45
2022-12-19T14:57:50.592Z,96714.34
2022-12-19T14:59:51.199Z,96715.56
2022-12-19T15:02:30.656Z,96703.35
2022-12-19T15:04:50.229Z,96716.05
2022-12-19T15:07:12.121Z,96713.58
2022-12-19T15:11:00.907Z,96695.81
2022-12-19T15:12:56.509Z,96699.34
2022-12-19T15:14:55.377Z,96709.00
2022-12-19T15:16:55.803Z,96709.00
2022-12-19T15:19:22.198Z,96711.10
2022-12-19T15:21:48.550Z,96709.00
2022-12-19T15:24:14.948Z,96702.72
2022-12-19T15:26:41.305Z,96707.64
2022-12-19T15:29:07.705Z,96707.64
2022-12-19T15:31:34.092Z,96718.70
2022-12-19T15:34:33.153Z,96711.96
2022-12-19T15:36:26.791Z,96711.96
2022-12-19T15:38:53.160Z,96725.95
2022-12-19T15:41:19.523Z,96724.16
2022-12-19T15:46:12.393Z,96733.96
2022-12-19T15:48:38.634Z,96732.39
2022-12-19T15:51:04.989Z,96746.56
2022-12-19T15:53:40.361Z,96744.02
2022-12-19T15:55:57.740Z,96740.14
2022-12-19T15:58:24.124Z,96738.95
2022-12-19T16:00:50.502Z,96742.48
2022-12-19T16:03:25.437Z,96742.30
2022-12-19T16:05:43.270Z,96742.30
2022-12-19T16:08:09.649Z,96738.87
2022-12-19T16:10:35.984Z,96737.75
2022-12-19T16:13:02.378Z,96716.65
2022-12-19T16:15:28.725Z,96728.24
2022-12-19T16:17:55.118Z,96728.33
2022-12-19T16:20:21.477Z,96735.90
2022-12-19T16:22:47.871Z,96738.60
2022-12-19T16:25:14.228Z,96738.60
2022-12-19T16:27:40.608Z,96742.19
2022-12-19T16:30:06.953Z,96746.72
2022-12-19T16:32:33.353Z,96727.31
2022-12-19T16:34:59.723Z,96727.31
2022-12-19T16:37:32.042Z,96747.37
2022-12-19T16:39:52.465Z,96747.37
2022-12-19T16:42:18.853Z,96748.02
2022-12-19T16:44:45.213Z,96748.02
2022-12-19T16:47:11.658Z,96730.89
2022-12-19T16:49:38.011Z,96730.89
2022-12-19T16:52:04.414Z,96731.46
2022-12-19T16:54:30.758Z,96743.86
2022-12-19T16:56:57.152Z,96743.86
2022-12-19T16:59:23.510Z,96745.80
2022-12-19T17:01:50.086Z,96747.86
2022-12-19T17:04:16.270Z,96744.70
2022-12-19T17:06:42.662Z,96746.37
2022-12-19T17:09:09.005Z,96744.89
2022-12-19T17:11:35.425Z,96743.97
2022-12-19T17:14:01.765Z,96750.07
2022-12-19T17:16:28.218Z,96758.27
2022-12-19T17:18:54.539Z,96754.00
2022-12-19T17:21:20.916Z,96759.18
2022-12-19T17:23:47.286Z,96756.78
2022-12-19T17:26:17.708Z,96749.85
2022-12-19T17:28:40.054Z,96753.02
2022-12-19T17:31:06.519Z,96753.02
2022-12-19T17:33:32.800Z,96746.80
2022-12-19T17:35:59.226Z,96752.36
2022-12-19T17:38:25.586Z,96756.44
2022-12-19T17:40:51.991Z,96751.88
2022-12-19T17:43:18.503Z,96751.41
2022-12-19T17:45:44.964Z,96753.66
2022-12-19T17:48:11.244Z,96749.67
2022-12-19T17:50:37.656Z,96743.49
2022-12-19T17:53:03.948Z,96743.49
2022-12-19T17:55:30.374Z,96749.59
2022-12-19T17:57:56.688Z,96753.09
2022-12-19T18:00:29.913Z,96753.09
2022-12-19T18:02:49.499Z,96747.84
2022-12-19T18:05:15.815Z,96733.59
2022-12-19T18:07:42.167Z,96733.59
2022-12-19T18:10:08.575Z,96728.88
2022-12-19T18:15:15.252Z,96740.45
2022-12-19T18:17:41.642Z,96741.45
2022-12-19T18:20:08.000Z,96748.95
2022-12-19T18:22:34.382Z,96748.41
2022-12-19T18:25:00.721Z,96753.86
2022-12-19T18:27:27.116Z,96761.63
2022-12-19T18:29:53.462Z,96754.96
2022-12-19T18:32:19.845Z,96755.88
2022-12-19T18:34:46.178Z,96761.89
2022-12-19T18:37:12.646Z,96761.89
2022-12-19T18:39:38.956Z,96750.70
2022-12-19T18:42:05.344Z,96750.70
2022-12-19T18:44:31.727Z,96747.50
2022-12-19T18:46:58.138Z,96736.19
2022-12-19T18:49:24.471Z,96752.30
2022-12-19T18:51:50.887Z,96753.78
2022-12-19T18:54:17.289Z,96742.12
2022-12-19T18:56:43.598Z,96742.12
2022-12-19T18:59:09.945Z,96748.68
2022-12-19T19:01:36.485Z,96760.59
2022-12-19T19:04:02.732Z,96760.59
2022-12-19T19:06:29.103Z,96761.63
2022-12-19T19:08:55.422Z,96768.28
2022-12-19T19:11:21.823Z,96772.06
2022-12-19T19:13:48.146Z,96774.00
2022-12-19T19:16:14.527Z,96777.88
2022-12-19T19:18:40.865Z,96775.13
2022-12-19T19:21:07.261Z,96781.95
2022-12-19T19:23:33.633Z,96784.55
2022-12-19T19:25:59.981Z,96781.69
2022-12-19T19:28:26.339Z,96785.30
2022-12-19T19:30:52.755Z,96748.98
2022-12-19T19:33:19.051Z,96748.98
2022-12-19T19:35:45.451Z,96777.08
2022-12-19T19:38:11.806Z,96777.80
2022-12-19T19:40:38.205Z,96773.73
2022-12-19T19:43:04.554Z,96773.20
2022-12-19T19:45:30.939Z,96781.41
2022-12-19T19:47:57.314Z,96789.07
2022-12-19T19:50:23.708Z,96797.86
2022-12-19T19:52:50.049Z,96795.84
2022-12-19T19:55:16.428Z,96805.81
2022-12-19T19:57:42.781Z,96808.13
2022-12-19T20:00:09.173Z,96798.62
2022-12-19T20:02:35.755Z,96796.94
2022-12-19T20:05:01.897Z,96807.28
2022-12-19T20:07:28.244Z,96799.34
2022-12-19T20:09:54.654Z,96804.52
2022-12-19T20:12:20.992Z,96801.02
2022-12-19T20:14:47.359Z,96794.27
2022-12-19T20:17:13.699Z,96795.84
2022-12-19T20:19:40.084Z,96793.97
2022-12-19T20:22:06.423Z,96791.04
2022-12-19T20:24:32.865Z,96790.47
2022-12-19T20:26:59.205Z,96782.70
2022-12-19T20:29:25.611Z,96791.42
2022-12-19T20:31:52.020Z,96775.49
2022-12-19T20:34:18.336Z,96778.09
2022-12-19T20:36:44.670Z,96773.91
2022-12-19T20:39:11.094Z,96774.86
2022-12-19T20:41:37.416Z,96778.91
2022-12-19T20:44:03.802Z,96773.11
2022-12-19T20:46:30.201Z,96772.34
2022-12-19T20:48:56.526Z,96766.63
2022-12-19T20:51:22.881Z,96769.38
2022-12-19T20:53:49.266Z,96774.74
2022-12-19T20:56:15.625Z,96776.87
2022-12-19T20:58:42.036Z,96777.89
2022-12-19T21:01:08.406Z,96777.52
2022-12-19T21:03:34.898Z,96775.39
2022-12-19T21:06:01.111Z,96777.14
2022-12-19T21:08:27.451Z,96773.29
2022-12-19T21:10:53.848Z,96777.63
2022-12-19T21:13:20.192Z,96769.75
2022-12-19T21:15:46.603Z,96769.03
2022-12-19T21:18:12.920Z,96765.22
2022-12-19T21:20:39.317Z,96768.56
2022-12-19T21:23:05.664Z,96772.53
2022-12-19T21:25:32.040Z,96766.70
2022-12-19T21:27:58.388Z,96765.06
2022-12-19T21:30:24.762Z,96767.81
2022-12-19T21:32:51.115Z,96763.13
2022-12-19T21:35:17.496Z,96765.13
2022-12-19T21:37:43.970Z,96769.58
2022-12-19T21:40:10.252Z,96760.25
2022-12-19T21:42:36.580Z,96765.13
2022-12-19T21:45:02.953Z,96778.18
2022-12-19T21:47:29.302Z,96777.42
2022-12-19T21:49:55.689Z,96775.21
2022-12-19T21:52:22.032Z,96776.42
2022-12-19T21:54:48.420Z,96766.80
2022-12-19T21:57:14.763Z,96767.52
2022-12-19T21:59:41.153Z,96765.38
2022-12-19T22:02:07.655Z,96764.63
2022-12-19T22:04:33.875Z,96764.55
2022-12-19T22:07:00.214Z,96771.24
2022-12-19T22:09:26.606Z,96754.27
2022-12-19T22:11:52.953Z,96746.16
2022-12-19T22:14:19.333Z,96747.91
2022-12-19T22:16:45.775Z,96732.92
2022-12-19T22:19:12.082Z,96741.05
2022-12-19T22:21:38.411Z,96733.60
2022-12-19T22:24:04.811Z,96728.61
2022-12-19T22:26:31.164Z,96723.52
2022-12-19T22:28:57.550Z,96721.66
2022-12-19T22:31:23.934Z,96725.53
2022-12-19T22:33:50.271Z,96723.13
2022-12-19T22:36:21.007Z,96734.04
2022-12-19T22:38:44.686Z,96738.95
2022-12-19T22:41:09.356Z,96737.73
2022-12-19T22:43:35.754Z,96739.22
2022-12-19T22:46:02.129Z,96737.36
2022-12-19T22:48:28.477Z,96735.34
2022-12-19T22:50:54.820Z,96737.81
2022-12-19T22:53:21.209Z,96735.90
2022-12-19T22:55:47.565Z,96734.61
2022-12-19T22:58:13.943Z,96726.01
2022-12-19T23:00:40.322Z,96731.63
2022-12-19T23:03:06.923Z,96727.00
2022-12-19T23:05:33.079Z,96724.70
2022-12-19T23:07:59.476Z,96720.82
2022-12-19T23:10:25.825Z,96716.48
2022-12-19T23:12:52.239Z,96718.31
2022-12-19T23:15:18.566Z,96715.00
2022-12-19T23:17:45.029Z,96715.07
2022-12-19T23:20:11.383Z,96714.09
2022-12-19T23:22:37.761Z,96709.90
2022-12-19T23:25:04.110Z,96716.02
2022-12-19T23:27:30.498Z,96718.33
2022-12-19T23:29:56.855Z,96707.61
2022-12-19T23:32:23.328Z,96713.43
2022-12-19T23:34:49.583Z,96708.97
2022-12-19T23:37:15.978Z,96711.94
2022-12-19T23:39:42.313Z,96716.73
2022-12-19T23:42:08.954Z,96713.80
2022-12-19T23:44:35.076Z,96711.21
2022-12-19T23:47:03.894Z,96706.84
2022-12-19T23:49:27.829Z,96706.86
2022-12-19T23:51:54.211Z,96718.48
2022-12-19T23:54:20.545Z,96707.77
2022-12-19T23:56:46.942Z,96706.40
2022-12-19T23:59:13.281Z,96704.45
